United B739 at Chicago on Jan 19th 2019, overran runway on landing

Last Update: January 19, 2019 / 23:46:31 GMT/Zulu time

Bookmark this article
Incident Facts

Date of incident
Jan 19, 2019

Classification
Incident

Airline
United

Flight number
UA-656

Aircraft Registration
N69816

Aircraft Type
Boeing 737-900

ICAO Type Designator
B739

Airport ICAO Code
KORD

A United Boeing 737-900, registration N69816 performing flight UA-656 from Phoenix,AZ to Chicago O'Hare,IL (USA) with 129 people on board, landed on Chicago's runway 04R at 11:27L (17:27Z) but overran the end of the runway and came to a stop with at least the nose gear off the paved surface. The passengers disembarked via mobile stairs and were bussed to the terminal. There were no injuries, the aircraft sustained minor if any damage.

The airline reported the aircraft rolled off the concrete surface due to weather conditions.

Related NOTAMs:
!ORD 01/766 ORD RWY 04R FICON 10 PCT 1/8IN DRY SN, 10 PCT 1/8IN DRY SN, 30 PCT 1/8IN DRY SN OBS AT 1901191720. 1901191720-1901201720
!ORD 01/772 ORD RWY 04R/22L CLSD 1901191728-1901192300
!ORD 01/798 ORD RWY 04R/22L CLSD 1901192245-1901200100

Metars:
KORD 191917Z 03021KT 5SM BLSN OVC014 M04/M06 A2998 RMK AO2 PK WND 02031/1855 T10391061 $=
KORD 191851Z 03024G32KT 4SM BLSN OVC015 M04/M06 A2999 RMK AO2 PK WND 02034/1837 SNE1759B38E48 SLP165 P0000 T10391061 $=
KORD 191838Z 03024G34KT 3SM -SN BLSN OVC015 M04/M06 A3000 RMK AO2 PK WND 02034/1837 SNE1759B38 P0000 T10391061 $=
KORD 191802Z 04022G29KT 5SM R10L/1400VP6000FT BLSN OVC016 M04/M06 A3002 RMK AO2 PK WND 03029/1800 SNE1759 P0000 T10391061 $=
KORD 191751Z 04017G29KT 4SM -SN BLSN OVC016 M04/M06 A3003 RMK AO2 PK WND 05029/1748 SLP178 4/005 933008 P0000 60002 T10391061 11033 21039 50001 $=
KORD 191651Z 04019G29KT 3SM -SN BLSN BKN014 OVC020 M04/M06 A3004 RMK AO2 PK WND 04030/1604 SLP181 P0000 T10391056 $=
KORD 191615Z 04021G29KT 3SM -SN BLSN OVC014 M04/M06 A3004 RMK AO2 PK WND 04030/1604 P0000 T10391056 $=
KORD 191551Z 05018G23KT 2 1/2SM R10L/4000VP6000FT -SN BLSN BKN014 OVC020 M03/M06 A3005 RMK AO2 PK WND 05030/1526 VIS 2V3 SLP185 P0000 T10331056 $=
KORD 191540Z 04018G24KT 2SM -SN BLSN OVC012 M03/M05 A3005 RMK AO2 PK WND 05030/1526 P0000 T10331050 $=
KORD 191451Z 05018KT 1 1/2SM -SN BLSN BKN011 BKN015 OVC024 M04/M05 A3003 RMK AO2 PK WND 04026/1430 SLP177 P0000 60002 T10391050 51002 $=
Incident Facts

Date of incident
Jan 19, 2019

Classification
Incident

Airline
United

Flight number
UA-656

Aircraft Registration
N69816

Aircraft Type
Boeing 737-900

ICAO Type Designator
B739

Airport ICAO Code
KORD

This article is published under license from Avherald.com. © of text by Avherald.com.
Article source

You can read 4 more free articles without a subscription.

Subscribe now and continue reading without any limits!

Are you a subscriber?
Login
Subscribe

Read unlimited articles and receive our daily update briefing. Gain better insights into what is happening in commercial aviation safety.

Free newsletter

Want to know more and stay ahead? Get our free weekly newsletter and join 4854 existing subscribers.

By subscribing, you accept our terms and conditions and confirm that you've read our privacy policy.

Send tip

Support AeroInside by sending a small tip amount.

Related articles

Newest articles

Subscribe today

Are you researching aviation incidents? Get access to AeroInside Insights, unlimited read access and receive the daily newsletter.

Pick your plan and subscribe

Partner

Blockaviation logo

A new way to document and demonstrate airworthiness compliance and aircraft value. Find out more.

Virtual Speech logo

Train yourself online in VR with the special course for aviation: "Crisis Communications: Airlines". Find out more.

Get updates

Never miss an article from AeroInside. Subscribe to our free weekly newsletter and join 4854 existing subscribers.

By subscribing, you accept our terms and conditions and that you've read our privacy policy.

AeroInside Blog
Popular aircraft
Airbus A320
Boeing 737-800
Boeing 737-800 MAX
Popular airlines
American Airlines
United
Delta
Air Canada
Lufthansa
British Airways